sensor_id;sensor_type;location;lat;lon;timestamp;P1;durP1;ratioP1;P2;durP2;ratioP2
52554;SDS011;38455;52.710;6.502;2023-02-11T00:01:21;24.17;;;9.85;;
52554;SDS011;38455;52.710;6.502;2023-02-11T00:03:50;28.38;;;9.40;;
52554;SDS011;38455;52.710;6.502;2023-02-11T00:06:17;22.88;;;9.43;;
52554;SDS011;38455;52.710;6.502;2023-02-11T00:08:43;30.15;;;9.48;;
52554;SDS011;38455;52.710;6.502;2023-02-11T00:11:12;24.60;;;8.98;;
52554;SDS011;38455;52.710;6.502;2023-02-11T00:13:40;27.27;;;9.10;;
52554;SDS011;38455;52.710;6.502;2023-02-11T00:16:07;23.65;;;9.00;;
52554;SDS011;38455;52.710;6.502;2023-02-11T00:18:34;27.63;;;9.45;;
52554;SDS011;38455;52.710;6.502;2023-02-11T00:21:04;33.25;;;10.02;;
52554;SDS011;38455;52.710;6.502;2023-02-11T00:23:38;29.15;;;8.57;;
52554;SDS011;38455;52.710;6.502;2023-02-11T00:26:04;25.65;;;9.00;;
52554;SDS011;38455;52.710;6.502;2023-02-11T00:28:43;29.80;;;8.85;;
52554;SDS011;38455;52.710;6.502;2023-02-11T00:31:10;28.33;;;8.85;;
52554;SDS011;38455;52.710;6.502;2023-02-11T00:33:36;22.63;;;8.52;;
52554;SDS011;38455;52.710;6.502;2023-02-11T00:36:03;25.38;;;8.73;;
52554;SDS011;38455;52.710;6.502;2023-02-11T00:38:30;23.80;;;8.35;;
52554;SDS011;38455;52.710;6.502;2023-02-11T00:40:56;19.48;;;7.28;;
52554;SDS011;38455;52.710;6.502;2023-02-11T00:43:21;24.60;;;8.55;;
52554;SDS011;38455;52.710;6.502;2023-02-11T00:45:47;26.67;;;7.82;;
52554;SDS011;38455;52.710;6.502;2023-02-11T00:48:12;31.75;;;9.10;;
52554;SDS011;38455;52.710;6.502;2023-02-11T00:50:38;28.88;;;7.70;;
52554;SDS011;38455;52.710;6.502;2023-02-11T00:53:04;35.40;;;7.88;;
52554;SDS011;38455;52.710;6.502;2023-02-11T00:55:29;23.92;;;7.30;;
52554;SDS011;38455;52.710;6.502;2023-02-11T00:57:55;21.63;;;7.20;;
52554;SDS011;38455;52.710;6.502;2023-02-11T01:00:22;24.65;;;8.10;;
52554;SDS011;38455;52.710;6.502;2023-02-11T01:02:48;29.33;;;7.63;;
52554;SDS011;38455;52.710;6.502;2023-02-11T01:05:14;22.42;;;6.90;;
52554;SDS011;38455;52.710;6.502;2023-02-11T01:07:39;33.97;;;7.53;;
52554;SDS011;38455;52.710;6.502;2023-02-11T01:10:05;24.75;;;6.70;;
52554;SDS011;38455;52.710;6.502;2023-02-11T01:12:31;31.35;;;7.47;;
52554;SDS011;38455;52.710;6.502;2023-02-11T01:14:56;30.45;;;8.52;;
52554;SDS011;38455;52.710;6.502;2023-02-11T01:17:22;29.25;;;7.32;;
52554;SDS011;38455;52.710;6.502;2023-02-11T01:19:48;23.38;;;7.30;;
52554;SDS011;38455;52.710;6.502;2023-02-11T01:22:13;23.20;;;6.80;;
52554;SDS011;38455;52.710;6.502;2023-02-11T01:24:39;22.35;;;8.32;;
52554;SDS011;38455;52.710;6.502;2023-02-11T01:27:04;23.77;;;6.93;;
52554;SDS011;38455;52.710;6.502;2023-02-11T01:29:30;28.65;;;7.22;;
52554;SDS011;38455;52.710;6.502;2023-02-11T01:31:56;21.40;;;6.63;;
52554;SDS011;38455;52.710;6.502;2023-02-11T01:34:21;23.27;;;7.30;;
52554;SDS011;38455;52.710;6.502;2023-02-11T01:36:47;18.85;;;6.28;;
52554;SDS011;38455;52.710;6.502;2023-02-11T01:39:12;27.65;;;7.07;;
52554;SDS011;38455;52.710;6.502;2023-02-11T01:41:38;28.88;;;7.13;;
52554;SDS011;38455;52.710;6.502;2023-02-11T01:46:48;32.00;;;7.63;;
52554;SDS011;38455;52.710;6.502;2023-02-11T01:49:15;22.75;;;7.00;;
52554;SDS011;38455;52.710;6.502;2023-02-11T01:51:51;24.08;;;6.45;;
52554;SDS011;38455;52.710;6.502;2023-02-11T01:54:27;36.40;;;7.72;;
52554;SDS011;38455;52.710;6.502;2023-02-11T01:57:16;23.75;;;6.65;;
52554;SDS011;38455;52.710;6.502;2023-02-11T02:08:12;25.17;;;7.00;;
52554;SDS011;38455;52.710;6.502;2023-02-11T02:10:53;24.52;;;7.85;;
52554;SDS011;38455;52.710;6.502;2023-02-11T02:13:21;19.88;;;6.07;;
52554;SDS011;38455;52.710;6.502;2023-02-11T02:15:48;27.58;;;6.70;;
52554;SDS011;38455;52.710;6.502;2023-02-11T02:18:45;23.97;;;7.93;;
52554;SDS011;38455;52.710;6.502;2023-02-11T02:21:40;26.80;;;6.88;;
52554;SDS011;38455;52.710;6.502;2023-02-11T02:35:28;23.73;;;7.68;;
52554;SDS011;38455;52.710;6.502;2023-02-11T02:40:58;25.35;;;6.45;;
52554;SDS011;38455;52.710;6.502;2023-02-11T02:43:35;28.43;;;7.33;;
52554;SDS011;38455;52.710;6.502;2023-02-11T02:46:11;25.63;;;8.27;;
52554;SDS011;38455;52.710;6.502;2023-02-11T02:48:37;47.05;;;9.95;;
52554;SDS011;38455;52.710;6.502;2023-02-11T02:51:13;21.27;;;7.25;;
52554;SDS011;38455;52.710;6.502;2023-02-11T02:54:13;29.38;;;7.75;;
52554;SDS011;38455;52.710;6.502;2023-02-11T03:02:57;30.30;;;7.75;;
52554;SDS011;38455;52.710;6.502;2023-02-11T03:05:54;23.90;;;7.57;;
52554;SDS011;38455;52.710;6.502;2023-02-11T03:08:31;30.98;;;8.85;;
52554;SDS011;38455;52.710;6.502;2023-02-11T03:11:16;24.45;;;7.78;;
52554;SDS011;38455;52.710;6.502;2023-02-11T03:13:43;27.90;;;7.95;;
52554;SDS011;38455;52.710;6.502;2023-02-11T03:16:14;29.15;;;8.63;;
52554;SDS011;38455;52.710;6.502;2023-02-11T03:18:47;32.28;;;9.93;;
52554;SDS011;38455;52.710;6.502;2023-02-11T03:21:16;37.15;;;8.88;;
52554;SDS011;38455;52.710;6.502;2023-02-11T03:23:48;26.85;;;9.27;;
52554;SDS011;38455;52.710;6.502;2023-02-11T03:26:24;32.20;;;9.10;;
52554;SDS011;38455;52.710;6.502;2023-02-11T03:31:33;32.83;;;9.55;;
52554;SDS011;38455;52.710;6.502;2023-02-11T03:34:09;30.27;;;9.30;;
52554;SDS011;38455;52.710;6.502;2023-02-11T03:39:24;29.13;;;9.65;;
52554;SDS011;38455;52.710;6.502;2023-02-11T03:41:55;29.77;;;11.15;;
52554;SDS011;38455;52.710;6.502;2023-02-11T03:44:24;33.75;;;10.48;;
52554;SDS011;38455;52.710;6.502;2023-02-11T03:46:54;38.70;;;11.48;;
52554;SDS011;38455;52.710;6.502;2023-02-11T03:49:21;29.55;;;11.38;;
52554;SDS011;38455;52.710;6.502;2023-02-11T03:51:51;32.50;;;11.68;;
52554;SDS011;38455;52.710;6.502;2023-02-11T03:54:20;32.28;;;12.43;;
52554;SDS011;38455;52.710;6.502;2023-02-11T03:56:51;34.30;;;12.20;;
52554;SDS011;38455;52.710;6.502;2023-02-11T03:59:19;38.55;;;12.75;;
52554;SDS011;38455;52.710;6.502;2023-02-11T04:01:45;32.83;;;13.10;;
52554;SDS011;38455;52.710;6.502;2023-02-11T04:04:11;36.85;;;13.45;;
52554;SDS011;38455;52.710;6.502;2023-02-11T04:06:37;40.83;;;12.48;;
52554;SDS011;38455;52.710;6.502;2023-02-11T04:09:03;36.72;;;13.95;;
52554;SDS011;38455;52.710;6.502;2023-02-11T04:11:29;39.38;;;15.27;;
52554;SDS011;38455;52.710;6.502;2023-02-11T04:13:54;45.38;;;14.73;;
52554;SDS011;38455;52.710;6.502;2023-02-11T04:16:20;37.45;;;13.73;;
52554;SDS011;38455;52.710;6.502;2023-02-11T04:18:45;45.20;;;16.05;;
52554;SDS011;38455;52.710;6.502;2023-02-11T04:21:11;38.15;;;14.38;;
52554;SDS011;38455;52.710;6.502;2023-02-11T04:23:37;50.40;;;15.00;;
52554;SDS011;38455;52.710;6.502;2023-02-11T04:26:02;33.38;;;15.07;;
52554;SDS011;38455;52.710;6.502;2023-02-11T04:28:28;44.97;;;17.58;;
52554;SDS011;38455;52.710;6.502;2023-02-11T04:30:55;39.72;;;17.15;;
52554;SDS011;38455;52.710;6.502;2023-02-11T04:33:21;40.78;;;16.63;;
52554;SDS011;38455;52.710;6.502;2023-02-11T04:35:47;39.25;;;17.17;;
52554;SDS011;38455;52.710;6.502;2023-02-11T04:38:13;39.80;;;17.40;;
52554;SDS011;38455;52.710;6.502;2023-02-11T04:40:39;39.67;;;16.63;;
52554;SDS011;38455;52.710;6.502;2023-02-11T04:43:05;39.33;;;16.67;;
52554;SDS011;38455;52.710;6.502;2023-02-11T04:45:31;37.03;;;17.63;;
52554;SDS011;38455;52.710;6.502;2023-02-11T04:47:57;46.30;;;17.85;;
52554;SDS011;38455;52.710;6.502;2023-02-11T04:50:22;51.35;;;20.00;;
52554;SDS011;38455;52.710;6.502;2023-02-11T04:52:48;53.05;;;19.85;;
52554;SDS011;38455;52.710;6.502;2023-02-11T04:55:14;48.00;;;20.45;;
52554;SDS011;38455;52.710;6.502;2023-02-11T04:57:39;47.33;;;18.95;;
52554;SDS011;38455;52.710;6.502;2023-02-11T05:00:05;45.67;;;19.15;;
52554;SDS011;38455;52.710;6.502;2023-02-11T05:02:32;44.92;;;19.25;;
52554;SDS011;38455;52.710;6.502;2023-02-11T05:04:57;53.10;;;19.65;;
52554;SDS011;38455;52.710;6.502;2023-02-11T05:07:23;43.03;;;19.52;;
52554;SDS011;38455;52.710;6.502;2023-02-11T05:09:49;44.45;;;19.75;;
52554;SDS011;38455;52.710;6.502;2023-02-11T05:12:14;54.08;;;21.88;;
52554;SDS011;38455;52.710;6.502;2023-02-11T05:14:40;46.20;;;19.05;;
52554;SDS011;38455;52.710;6.502;2023-02-11T05:17:06;42.15;;;19.52;;
52554;SDS011;38455;52.710;6.502;2023-02-11T05:19:31;48.58;;;20.45;;
52554;SDS011;38455;52.710;6.502;2023-02-11T05:21:57;50.72;;;21.10;;
52554;SDS011;38455;52.710;6.502;2023-02-11T05:24:23;52.38;;;21.73;;
52554;SDS011;38455;52.710;6.502;2023-02-11T05:26:48;44.88;;;20.58;;
52554;SDS011;38455;52.710;6.502;2023-02-11T05:29:14;51.33;;;21.42;;
52554;SDS011;38455;52.710;6.502;2023-02-11T05:31:39;47.45;;;21.17;;
52554;SDS011;38455;52.710;6.502;2023-02-11T05:34:05;47.92;;;20.90;;
52554;SDS011;38455;52.710;6.502;2023-02-11T05:36:30;56.55;;;22.80;;
52554;SDS011;38455;52.710;6.502;2023-02-11T05:38:56;48.40;;;22.83;;
52554;SDS011;38455;52.710;6.502;2023-02-11T05:41:22;55.22;;;23.50;;
52554;SDS011;38455;52.710;6.502;2023-02-11T05:43:48;54.85;;;23.85;;
52554;SDS011;38455;52.710;6.502;2023-02-11T05:46:15;59.03;;;23.52;;
52554;SDS011;38455;52.710;6.502;2023-02-11T05:48:41;55.38;;;23.88;;
52554;SDS011;38455;52.710;6.502;2023-02-11T05:51:07;49.45;;;24.30;;
52554;SDS011;38455;52.710;6.502;2023-02-11T05:53:33;49.25;;;23.77;;
52554;SDS011;38455;52.710;6.502;2023-02-11T05:55:59;51.70;;;23.55;;
52554;SDS011;38455;52.710;6.502;2023-02-11T05:58:25;51.67;;;24.45;;
52554;SDS011;38455;52.710;6.502;2023-02-11T06:00:50;52.63;;;22.92;;
52554;SDS011;38455;52.710;6.502;2023-02-11T06:03:16;57.38;;;24.00;;
52554;SDS011;38455;52.710;6.502;2023-02-11T06:05:42;62.00;;;23.50;;
52554;SDS011;38455;52.710;6.502;2023-02-11T06:08:08;44.53;;;22.88;;
52554;SDS011;38455;52.710;6.502;2023-02-11T06:10:34;51.80;;;23.85;;
52554;SDS011;38455;52.710;6.502;2023-02-11T06:13:00;45.60;;;22.58;;
52554;SDS011;38455;52.710;6.502;2023-02-11T06:15:26;48.15;;;23.45;;
52554;SDS011;38455;52.710;6.502;2023-02-11T06:17:51;50.28;;;23.90;;
52554;SDS011;38455;52.710;6.502;2023-02-11T06:20:17;49.53;;;23.15;;
52554;SDS011;38455;52.710;6.502;2023-02-11T06:22:43;55.33;;;22.63;;
52554;SDS011;38455;52.710;6.502;2023-02-11T06:25:09;51.88;;;23.75;;
52554;SDS011;38455;52.710;6.502;2023-02-11T06:27:35;52.28;;;22.13;;
52554;SDS011;38455;52.710;6.502;2023-02-11T06:30:01;50.10;;;22.23;;
52554;SDS011;38455;52.710;6.502;2023-02-11T06:32:27;58.28;;;25.23;;
52554;SDS011;38455;52.710;6.502;2023-02-11T06:34:53;58.08;;;23.30;;
52554;SDS011;38455;52.710;6.502;2023-02-11T06:37:19;51.70;;;23.10;;
52554;SDS011;38455;52.710;6.502;2023-02-11T06:39:45;50.80;;;23.48;;
52554;SDS011;38455;52.710;6.502;2023-02-11T06:42:10;53.53;;;23.27;;
52554;SDS011;38455;52.710;6.502;2023-02-11T06:44:36;56.80;;;23.55;;
52554;SDS011;38455;52.710;6.502;2023-02-11T06:47:02;61.17;;;23.42;;
52554;SDS011;38455;52.710;6.502;2023-02-11T06:49:27;51.15;;;21.80;;
52554;SDS011;38455;52.710;6.502;2023-02-11T06:51:53;55.28;;;23.25;;
52554;SDS011;38455;52.710;6.502;2023-02-11T06:54:19;54.70;;;22.95;;
52554;SDS011;38455;52.710;6.502;2023-02-11T06:56:45;53.65;;;22.98;;
52554;SDS011;38455;52.710;6.502;2023-02-11T06:59:15;49.65;;;22.27;;
52554;SDS011;38455;52.710;6.502;2023-02-11T07:01:42;56.45;;;23.17;;
52554;SDS011;38455;52.710;6.502;2023-02-11T07:04:08;56.53;;;22.88;;
52554;SDS011;38455;52.710;6.502;2023-02-11T07:06:33;52.97;;;22.17;;
52554;SDS011;38455;52.710;6.502;2023-02-11T07:09:01;56.17;;;23.60;;
52554;SDS011;38455;52.710;6.502;2023-02-11T07:11:30;61.22;;;24.05;;
52554;SDS011;38455;52.710;6.502;2023-02-11T07:14:01;48.70;;;23.58;;
52554;SDS011;38455;52.710;6.502;2023-02-11T07:16:29;62.33;;;27.63;;
52554;SDS011;38455;52.710;6.502;2023-02-11T07:18:55;57.45;;;24.55;;
52554;SDS011;38455;52.710;6.502;2023-02-11T07:21:21;58.50;;;23.90;;
52554;SDS011;38455;52.710;6.502;2023-02-11T07:23:48;50.75;;;24.75;;
52554;SDS011;38455;52.710;6.502;2023-02-11T07:26:15;62.25;;;23.80;;
52554;SDS011;38455;52.710;6.502;2023-02-11T07:28:44;55.80;;;24.35;;
52554;SDS011;38455;52.710;6.502;2023-02-11T07:31:13;61.00;;;25.92;;
52554;SDS011;38455;52.710;6.502;2023-02-11T07:33:41;55.78;;;24.13;;
52554;SDS011;38455;52.710;6.502;2023-02-11T07:36:07;52.35;;;24.50;;
52554;SDS011;38455;52.710;6.502;2023-02-11T07:38:35;60.13;;;24.52;;
52554;SDS011;38455;52.710;6.502;2023-02-11T07:41:05;64.78;;;27.27;;
52554;SDS011;38455;52.710;6.502;2023-02-11T07:43:33;53.83;;;24.50;;
52554;SDS011;38455;52.710;6.502;2023-02-11T07:46:03;55.40;;;24.88;;
52554;SDS011;38455;52.710;6.502;2023-02-11T07:48:34;69.85;;;26.65;;
52554;SDS011;38455;52.710;6.502;2023-02-11T07:51:09;56.15;;;24.95;;
52554;SDS011;38455;52.710;6.502;2023-02-11T07:53:40;54.20;;;24.35;;
52554;SDS011;38455;52.710;6.502;2023-02-11T07:56:06;62.65;;;25.92;;
52554;SDS011;38455;52.710;6.502;2023-02-11T07:58:33;57.05;;;25.52;;
52554;SDS011;38455;52.710;6.502;2023-02-11T08:01:00;55.47;;;25.92;;
52554;SDS011;38455;52.710;6.502;2023-02-11T08:03:27;55.08;;;25.73;;
52554;SDS011;38455;52.710;6.502;2023-02-11T08:05:53;50.17;;;23.95;;
52554;SDS011;38455;52.710;6.502;2023-02-11T08:08:19;56.60;;;25.42;;
52554;SDS011;38455;52.710;6.502;2023-02-11T08:10:46;58.83;;;23.67;;
52554;SDS011;38455;52.710;6.502;2023-02-11T08:13:11;56.95;;;25.80;;
52554;SDS011;38455;52.710;6.502;2023-02-11T08:15:37;51.50;;;25.02;;
52554;SDS011;38455;52.710;6.502;2023-02-11T08:18:02;53.65;;;23.25;;
52554;SDS011;38455;52.710;6.502;2023-02-11T08:20:28;50.10;;;23.60;;
52554;SDS011;38455;52.710;6.502;2023-02-11T08:22:54;52.85;;;23.67;;
52554;SDS011;38455;52.710;6.502;2023-02-11T08:25:19;52.08;;;23.83;;
52554;SDS011;38455;52.710;6.502;2023-02-11T08:27:45;54.35;;;23.65;;
52554;SDS011;38455;52.710;6.502;2023-02-11T08:30:11;47.20;;;22.90;;
52554;SDS011;38455;52.710;6.502;2023-02-11T08:32:37;43.95;;;23.70;;
52554;SDS011;38455;52.710;6.502;2023-02-11T08:35:03;46.33;;;22.10;;
52554;SDS011;38455;52.710;6.502;2023-02-11T08:37:31;44.35;;;21.88;;
52554;SDS011;38455;52.710;6.502;2023-02-11T08:39:57;49.70;;;23.90;;
52554;SDS011;38455;52.710;6.502;2023-02-11T08:42:23;47.45;;;21.75;;
52554;SDS011;38455;52.710;6.502;2023-02-11T08:44:48;49.42;;;22.27;;
52554;SDS011;38455;52.710;6.502;2023-02-11T08:47:14;47.85;;;22.35;;
52554;SDS011;38455;52.710;6.502;2023-02-11T08:49:40;46.75;;;22.02;;
52554;SDS011;38455;52.710;6.502;2023-02-11T08:52:06;49.67;;;22.05;;
52554;SDS011;38455;52.710;6.502;2023-02-11T08:54:32;46.15;;;21.83;;
52554;SDS011;38455;52.710;6.502;2023-02-11T08:56:58;38.47;;;20.17;;
52554;SDS011;38455;52.710;6.502;2023-02-11T08:59:25;43.75;;;20.23;;
52554;SDS011;38455;52.710;6.502;2023-02-11T09:01:52;46.65;;;21.45;;
52554;SDS011;38455;52.710;6.502;2023-02-11T09:04:17;44.97;;;21.20;;
52554;SDS011;38455;52.710;6.502;2023-02-11T09:06:43;46.53;;;22.38;;
52554;SDS011;38455;52.710;6.502;2023-02-11T09:09:10;42.88;;;21.10;;
52554;SDS011;38455;52.710;6.502;2023-02-11T09:11:37;39.92;;;20.35;;
52554;SDS011;38455;52.710;6.502;2023-02-11T09:14:04;38.97;;;20.23;;
52554;SDS011;38455;52.710;6.502;2023-02-11T09:16:32;37.70;;;19.58;;
52554;SDS011;38455;52.710;6.502;2023-02-11T09:19:00;42.90;;;19.15;;
52554;SDS011;38455;52.710;6.502;2023-02-11T09:21:26;40.33;;;19.55;;
52554;SDS011;38455;52.710;6.502;2023-02-11T09:23:53;39.00;;;19.42;;
52554;SDS011;38455;52.710;6.502;2023-02-11T09:26:20;38.60;;;17.58;;
52554;SDS011;38455;52.710;6.502;2023-02-11T09:28:47;36.42;;;18.75;;
52554;SDS011;38455;52.710;6.502;2023-02-11T09:31:14;33.58;;;16.77;;
52554;SDS011;38455;52.710;6.502;2023-02-11T09:33:42;33.03;;;17.30;;
52554;SDS011;38455;52.710;6.502;2023-02-11T09:36:12;35.35;;;18.58;;
52554;SDS011;38455;52.710;6.502;2023-02-11T09:38:42;33.58;;;16.13;;
52554;SDS011;38455;52.710;6.502;2023-02-11T09:43:46;42.17;;;18.77;;
52554;SDS011;38455;52.710;6.502;2023-02-11T09:46:16;37.13;;;16.63;;
52554;SDS011;38455;52.710;6.502;2023-02-11T09:48:44;30.77;;;15.27;;
52554;SDS011;38455;52.710;6.502;2023-02-11T09:51:17;29.80;;;14.55;;
52554;SDS011;38455;52.710;6.502;2023-02-11T09:53:49;31.35;;;14.90;;
52554;SDS011;38455;52.710;6.502;2023-02-11T09:56:20;31.70;;;15.35;;
52554;SDS011;38455;52.710;6.502;2023-02-11T09:58:52;29.48;;;14.73;;
52554;SDS011;38455;52.710;6.502;2023-02-11T10:01:36;29.73;;;13.32;;
52554;SDS011;38455;52.710;6.502;2023-02-11T10:06:56;25.00;;;12.73;;
52554;SDS011;38455;52.710;6.502;2023-02-11T10:09:57;27.23;;;12.40;;
52554;SDS011;38455;52.710;6.502;2023-02-11T10:15:16;28.38;;;11.73;;
52554;SDS011;38455;52.710;6.502;2023-02-11T10:20:45;21.48;;;11.35;;
52554;SDS011;38455;52.710;6.502;2023-02-11T10:23:34;23.58;;;12.32;;
52554;SDS011;38455;52.710;6.502;2023-02-11T10:26:07;22.15;;;10.70;;
52554;SDS011;38455;52.710;6.502;2023-02-11T10:28:40;21.83;;;10.80;;
52554;SDS011;38455;52.710;6.502;2023-02-11T10:31:14;24.23;;;11.02;;
52554;SDS011;38455;52.710;6.502;2023-02-11T10:33:46;27.98;;;11.02;;
52554;SDS011;38455;52.710;6.502;2023-02-11T10:36:15;27.58;;;12.02;;
52554;SDS011;38455;52.710;6.502;2023-02-11T10:38:42;24.63;;;11.55;;
52554;SDS011;38455;52.710;6.502;2023-02-11T10:41:09;23.73;;;10.30;;
52554;SDS011;38455;52.710;6.502;2023-02-11T10:43:41;24.02;;;10.18;;
52554;SDS011;38455;52.710;6.502;2023-02-11T10:46:18;24.42;;;11.35;;
52554;SDS011;38455;52.710;6.502;2023-02-11T10:48:48;27.23;;;11.40;;
52554;SDS011;38455;52.710;6.502;2023-02-11T10:53:48;19.50;;;9.60;;
52554;SDS011;38455;52.710;6.502;2023-02-11T10:56:39;20.10;;;11.18;;
52554;SDS011;38455;52.710;6.502;2023-02-11T10:59:28;23.58;;;10.57;;
52554;SDS011;38455;52.710;6.502;2023-02-11T11:01:58;22.95;;;9.95;;
52554;SDS011;38455;52.710;6.502;2023-02-11T11:06:54;26.55;;;10.57;;
52554;SDS011;38455;52.710;6.502;2023-02-11T11:09:28;21.13;;;9.95;;
52554;SDS011;38455;52.710;6.502;2023-02-11T11:12:16;16.15;;;9.48;;
52554;SDS011;38455;52.710;6.502;2023-02-11T11:14:55;22.33;;;10.82;;
52554;SDS011;38455;52.710;6.502;2023-02-11T11:17:25;28.90;;;10.45;;
52554;SDS011;38455;52.710;6.502;2023-02-11T11:19:55;28.00;;;10.45;;
52554;SDS011;38455;52.710;6.502;2023-02-11T11:22:42;19.25;;;9.30;;
52554;SDS011;38455;52.710;6.502;2023-02-11T11:25:22;22.08;;;11.32;;
52554;SDS011;38455;52.710;6.502;2023-02-11T11:27:54;20.38;;;10.20;;
52554;SDS011;38455;52.710;6.502;2023-02-11T11:30:24;22.17;;;9.82;;
52554;SDS011;38455;52.710;6.502;2023-02-11T11:32:56;22.85;;;10.95;;
52554;SDS011;38455;52.710;6.502;2023-02-11T11:35:27;21.00;;;9.63;;
52554;SDS011;38455;52.710;6.502;2023-02-11T11:37:58;22.98;;;9.65;;
52554;SDS011;38455;52.710;6.502;2023-02-11T11:40:27;17.20;;;9.55;;
52554;SDS011;38455;52.710;6.502;2023-02-11T11:43:02;18.13;;;9.10;;
52554;SDS011;38455;52.710;6.502;2023-02-11T11:45:38;17.83;;;9.63;;
52554;SDS011;38455;52.710;6.502;2023-02-11T11:48:37;20.45;;;9.35;;
52554;SDS011;38455;52.710;6.502;2023-02-11T11:51:03;16.92;;;9.35;;
52554;SDS011;38455;52.710;6.502;2023-02-11T11:53:35;22.85;;;10.05;;
52554;SDS011;38455;52.710;6.502;2023-02-11T11:58:37;22.33;;;10.32;;
52554;SDS011;38455;52.710;6.502;2023-02-11T12:03:42;16.05;;;8.35;;
52554;SDS011;38455;52.710;6.502;2023-02-11T12:12:41;21.92;;;8.68;;
52554;SDS011;38455;52.710;6.502;2023-02-11T12:18:33;16.08;;;7.97;;
52554;SDS011;38455;52.710;6.502;2023-02-11T12:24:05;30.38;;;8.13;;
52554;SDS011;38455;52.710;6.502;2023-02-11T12:27:07;16.83;;;7.68;;
52554;SDS011;38455;52.710;6.502;2023-02-11T12:32:44;18.75;;;8.68;;
52554;SDS011;38455;52.710;6.502;2023-02-11T12:35:34;16.83;;;6.88;;
52554;SDS011;38455;52.710;6.502;2023-02-11T12:38:31;14.70;;;7.45;;
52554;SDS011;38455;52.710;6.502;2023-02-11T12:43:41;15.75;;;6.32;;
52554;SDS011;38455;52.710;6.502;2023-02-11T12:54:28;18.88;;;6.45;;
52554;SDS011;38455;52.710;6.502;2023-02-11T12:57:14;16.52;;;6.15;;
52554;SDS011;38455;52.710;6.502;2023-02-11T12:59:52;19.20;;;5.90;;
52554;SDS011;38455;52.710;6.502;2023-02-11T13:02:28;15.40;;;5.47;;
52554;SDS011;38455;52.710;6.502;2023-02-11T13:05:01;14.93;;;5.95;;
52554;SDS011;38455;52.710;6.502;2023-02-11T13:07:34;15.43;;;5.88;;
52554;SDS011;38455;52.710;6.502;2023-02-11T13:10:23;18.67;;;5.90;;
52554;SDS011;38455;52.710;6.502;2023-02-11T13:12:56;13.07;;;4.90;;
52554;SDS011;38455;52.710;6.502;2023-02-11T13:15:42;13.93;;;5.22;;
52554;SDS011;38455;52.710;6.502;2023-02-11T13:18:16;12.15;;;4.63;;
52554;SDS011;38455;52.710;6.502;2023-02-11T13:20:59;17.30;;;4.97;;
52554;SDS011;38455;52.710;6.502;2023-02-11T13:23:56;11.60;;;4.15;;
52554;SDS011;38455;52.710;6.502;2023-02-11T13:29:34;15.40;;;4.70;;
52554;SDS011;38455;52.710;6.502;2023-02-11T13:32:22;13.65;;;4.43;;
52554;SDS011;38455;52.710;6.502;2023-02-11T13:37:35;11.18;;;4.30;;
52554;SDS011;38455;52.710;6.502;2023-02-11T13:42:28;12.15;;;4.32;;
52554;SDS011;38455;52.710;6.502;2023-02-11T13:44:55;10.82;;;4.82;;
52554;SDS011;38455;52.710;6.502;2023-02-11T13:47:25;16.77;;;4.50;;
52554;SDS011;38455;52.710;6.502;2023-02-11T13:49:57;12.88;;;4.05;;
52554;SDS011;38455;52.710;6.502;2023-02-11T13:52:26;12.70;;;4.70;;
52554;SDS011;38455;52.710;6.502;2023-02-11T13:54:53;11.75;;;4.90;;
52554;SDS011;38455;52.710;6.502;2023-02-11T13:59:47;13.20;;;4.38;;
52554;SDS011;38455;52.710;6.502;2023-02-11T14:02:36;12.00;;;4.32;;
52554;SDS011;38455;52.710;6.502;2023-02-11T14:05:22;12.80;;;4.40;;
52554;SDS011;38455;52.710;6.502;2023-02-11T14:10:56;15.75;;;5.03;;
52554;SDS011;38455;52.710;6.502;2023-02-11T14:16:20;10.00;;;4.35;;
52554;SDS011;38455;52.710;6.502;2023-02-11T14:21:18;16.75;;;4.82;;
52554;SDS011;38455;52.710;6.502;2023-02-11T14:23:44;14.52;;;5.80;;
52554;SDS011;38455;52.710;6.502;2023-02-11T14:28:39;9.23;;;3.83;;
52554;SDS011;38455;52.710;6.502;2023-02-11T14:31:21;11.52;;;3.67;;
52554;SDS011;38455;52.710;6.502;2023-02-11T14:39:25;14.60;;;4.43;;
52554;SDS011;38455;52.710;6.502;2023-02-11T14:41:53;10.73;;;3.53;;
52554;SDS011;38455;52.710;6.502;2023-02-11T14:44:21;10.18;;;3.30;;
52554;SDS011;38455;52.710;6.502;2023-02-11T14:46:49;18.10;;;3.88;;
52554;SDS011;38455;52.710;6.502;2023-02-11T14:49:22;10.38;;;3.15;;
52554;SDS011;38455;52.710;6.502;2023-02-11T14:51:52;14.98;;;3.67;;
52554;SDS011;38455;52.710;6.502;2023-02-11T14:54:22;9.32;;;3.03;;
52554;SDS011;38455;52.710;6.502;2023-02-11T14:59:35;15.30;;;3.78;;
52554;SDS011;38455;52.710;6.502;2023-02-11T15:02:01;9.77;;;2.85;;
52554;SDS011;38455;52.710;6.502;2023-02-11T15:04:31;11.85;;;3.50;;
52554;SDS011;38455;52.710;6.502;2023-02-11T15:07:04;11.38;;;3.42;;
52554;SDS011;38455;52.710;6.502;2023-02-11T15:09:33;11.02;;;3.63;;
52554;SDS011;38455;52.710;6.502;2023-02-11T15:12:04;11.57;;;3.15;;
52554;SDS011;38455;52.710;6.502;2023-02-11T15:14:40;9.73;;;2.97;;
52554;SDS011;38455;52.710;6.502;2023-02-11T15:17:12;11.82;;;3.05;;
52554;SDS011;38455;52.710;6.502;2023-02-11T15:19:43;10.93;;;2.90;;
52554;SDS011;38455;52.710;6.502;2023-02-11T15:22:15;14.60;;;3.65;;
52554;SDS011;38455;52.710;6.502;2023-02-11T15:24:44;16.05;;;3.22;;
52554;SDS011;38455;52.710;6.502;2023-02-11T15:27:21;13.57;;;3.80;;
52554;SDS011;38455;52.710;6.502;2023-02-11T15:29:49;9.32;;;2.90;;
52554;SDS011;38455;52.710;6.502;2023-02-11T15:32:17;11.88;;;3.40;;
52554;SDS011;38455;52.710;6.502;2023-02-11T15:34:47;12.68;;;3.58;;
52554;SDS011;38455;52.710;6.502;2023-02-11T15:39:48;12.10;;;3.00;;
52554;SDS011;38455;52.710;6.502;2023-02-11T15:44:49;13.20;;;4.00;;
52554;SDS011;38455;52.710;6.502;2023-02-11T15:47:37;11.70;;;3.70;;
52554;SDS011;38455;52.710;6.502;2023-02-11T15:50:06;18.15;;;3.80;;
52554;SDS011;38455;52.710;6.502;2023-02-11T15:52:43;19.83;;;5.72;;
52554;SDS011;38455;52.710;6.502;2023-02-11T15:55:11;7.18;;;2.70;;
52554;SDS011;38455;52.710;6.502;2023-02-11T15:57:40;10.55;;;3.17;;
52554;SDS011;38455;52.710;6.502;2023-02-11T16:00:16;12.38;;;4.50;;
52554;SDS011;38455;52.710;6.502;2023-02-11T16:02:44;9.45;;;3.67;;
52554;SDS011;38455;52.710;6.502;2023-02-11T16:05:43;17.08;;;4.50;;
52554;SDS011;38455;52.710;6.502;2023-02-11T16:10:56;17.08;;;3.97;;
52554;SDS011;38455;52.710;6.502;2023-02-11T16:13:32;20.67;;;5.75;;
52554;SDS011;38455;52.710;6.502;2023-02-11T16:16:18;15.27;;;5.70;;
52554;SDS011;38455;52.710;6.502;2023-02-11T16:18:51;12.55;;;4.53;;
52554;SDS011;38455;52.710;6.502;2023-02-11T16:21:20;13.68;;;3.80;;
52554;SDS011;38455;52.710;6.502;2023-02-11T16:24:03;17.10;;;4.00;;
52554;SDS011;38455;52.710;6.502;2023-02-11T16:26:45;12.27;;;3.38;;
52554;SDS011;38455;52.710;6.502;2023-02-11T16:29:16;17.77;;;4.85;;
52554;SDS011;38455;52.710;6.502;2023-02-11T16:31:50;13.25;;;5.53;;
52554;SDS011;38455;52.710;6.502;2023-02-11T16:34:18;17.65;;;5.57;;
52554;SDS011;38455;52.710;6.502;2023-02-11T16:36:48;14.93;;;3.67;;
52554;SDS011;38455;52.710;6.502;2023-02-11T16:39:15;15.80;;;4.70;;
52554;SDS011;38455;52.710;6.502;2023-02-11T16:41:42;23.95;;;4.50;;
52554;SDS011;38455;52.710;6.502;2023-02-11T16:44:07;15.35;;;4.03;;
52554;SDS011;38455;52.710;6.502;2023-02-11T16:46:33;13.48;;;3.28;;
52554;SDS011;38455;52.710;6.502;2023-02-11T16:49:42;11.52;;;4.63;;